Terminal Aerodrome Forecast
Issued by NWS

Home | Current Version | Previous Version | Text Only | Print | Product List | Glossary On
Versions: 1 2 3 4 5 6 7 8 9 10 11 12 13 14 15 16 17 18 19 20 21 22
000
FTUS43 KMPX 280520
TAFRNH
TAF
KRNH 280520Z 2806/2906 VRB03KT 4SM BR SCT007 OVC015
     FM281100 29002KT 4SM -SHRA BR BKN007 OVC015
     FM281600 15005KT 5SM BR VCSH OVC020
     FM281800 18008KT P6SM SCT025 BKN050
     FM282100 20005KT P6SM VCSH BKN050=

USA.gov is the U.S. government's official web portal to all federal, state and local government web resources and services.